createdAt,value
2022-10-29T00:00:27.259Z,16.45
2022-10-29T00:05:29.699Z,16.54
2022-10-29T00:10:32.259Z,16.28
2022-10-29T00:15:34.580Z,16.13
2022-10-29T00:20:36.977Z,16.70
2022-10-29T00:25:39.385Z,17.38
2022-10-29T00:30:41.704Z,17.71
2022-10-29T00:35:54.275Z,17.43
2022-10-29T00:40:56.629Z,16.50
2022-10-29T00:46:27.293Z,16.27
2022-10-29T00:51:32.538Z,16.34
2022-10-29T00:56:42.161Z,16.48
2022-10-29T01:01:47.064Z,16.42
2022-10-29T01:06:50.108Z,16.00
2022-10-29T01:12:17.086Z,16.63
2022-10-29T01:17:42.737Z,16.67
2022-10-29T01:22:54.361Z,16.27
2022-10-29T01:28:08.726Z,16.34
2022-10-29T01:33:36.483Z,16.56
2022-10-29T01:39:03.273Z,16.97
2022-10-29T01:44:26.910Z,16.61
2022-10-29T01:49:35.633Z,16.66
2022-10-29T01:54:43.255Z,16.42
2022-10-29T01:59:55.522Z,16.49
2022-10-29T02:05:18.164Z,17.18
2022-10-29T02:10:32.651Z,17.73
2022-10-29T02:15:36.842Z,17.30
2022-10-29T02:20:43.515Z,17.33
2022-10-29T02:25:45.947Z,17.15
2022-10-29T02:30:48.423Z,17.28
2022-10-29T02:35:50.944Z,17.33
2022-10-29T02:40:53.386Z,16.84
2022-10-29T02:46:31.529Z,17.00
2022-10-29T02:51:34.163Z,17.70
2022-10-29T02:56:36.527Z,17.27
2022-10-29T03:01:38.998Z,16.68
2022-10-29T03:06:41.570Z,16.85
2022-10-29T03:17:00.141Z,17.02
2022-10-29T03:22:02.529Z,17.71
2022-10-29T03:27:04.994Z,17.78
2022-10-29T03:32:07.380Z,16.82
2022-10-29T03:37:09.877Z,16.40
2022-10-29T03:42:12.248Z,16.93
2022-10-29T03:47:14.553Z,16.97
2022-10-29T03:52:17.132Z,16.33
2022-10-29T03:57:19.758Z,16.23
2022-10-29T04:02:22.482Z,15.99
2022-10-29T04:07:24.932Z,15.90
2022-10-29T04:12:27.304Z,16.19
2022-10-29T04:17:29.921Z,15.98
2022-10-29T04:24:28.956Z,16.18
2022-10-29T04:33:18.551Z,15.91
2022-10-29T04:38:21.557Z,16.06
2022-10-29T04:43:23.974Z,15.79
2022-10-29T04:48:27.592Z,16.53
2022-10-29T04:53:29.976Z,16.52
2022-10-29T04:58:32.335Z,15.89
2022-10-29T05:03:34.902Z,16.40
2022-10-29T05:08:37.354Z,15.97
2022-10-29T05:13:39.766Z,15.52
2022-10-29T05:18:42.109Z,15.21
2022-10-29T05:23:44.488Z,15.24
2022-10-29T05:28:53.013Z,15.01
2022-10-29T05:33:56.078Z,14.80
2022-10-29T05:38:58.686Z,15.15
2022-10-29T05:44:01.054Z,15.18
2022-10-29T05:49:03.992Z,15.18
2022-10-29T05:54:06.548Z,15.61
2022-10-29T05:59:09.057Z,15.03
2022-10-29T06:04:11.428Z,14.98
2022-10-29T06:09:13.790Z,14.88
2022-10-29T06:14:16.112Z,14.70
2022-10-29T06:19:18.551Z,14.57
2022-10-29T06:24:21.170Z,14.62
2022-10-29T06:29:23.571Z,14.70
2022-10-29T06:34:26.005Z,14.61
2022-10-29T06:39:28.409Z,14.79
2022-10-29T06:44:30.794Z,14.80
2022-10-29T06:49:33.191Z,14.82
2022-10-29T06:54:35.543Z,14.75
2022-10-29T06:59:37.860Z,14.86
2022-10-29T07:04:40.227Z,15.09
2022-10-29T07:09:45.590Z,15.64
2022-10-29T07:14:47.952Z,15.59
2022-10-29T07:19:50.499Z,16.08
2022-10-29T07:24:54.777Z,16.69
2022-10-29T07:29:59.627Z,16.31
2022-10-29T07:35:02.053Z,16.60
2022-10-29T07:40:05.209Z,16.71
2022-10-29T07:45:07.949Z,16.63
2022-10-29T07:50:10.774Z,16.66
2022-10-29T07:55:13.148Z,17.21
2022-10-29T08:00:15.829Z,17.59
2022-10-29T08:05:18.663Z,17.89
2022-10-29T08:10:22.178Z,18.66
2022-10-29T08:15:25.818Z,19.13
2022-10-29T08:20:29.503Z,19.06
2022-10-29T08:25:31.999Z,19.73
2022-10-29T08:30:34.814Z,20.26
2022-10-29T08:35:37.231Z,20.25
2022-10-29T08:40:48.179Z,20.05
2022-10-29T08:45:54.795Z,20.32
2022-10-29T08:51:51.026Z,20.56
2022-10-29T08:56:57.958Z,20.60
2022-10-29T09:02:00.428Z,20.38
2022-10-29T09:07:28.725Z,20.62
2022-10-29T09:13:12.171Z,20.78
2022-10-29T09:18:52.527Z,20.90
2022-10-29T09:24:00.890Z,21.10
2022-10-29T09:29:15.745Z,21.34
2022-10-29T09:34:55.429Z,21.28
2022-10-29T09:39:59.207Z,21.69
2022-10-29T09:45:09.335Z,22.01
2022-10-29T09:50:33.010Z,21.63
2022-10-29T09:55:44.795Z,21.54
2022-10-29T10:00:47.207Z,21.71
2022-10-29T10:06:00.168Z,21.60
2022-10-29T10:11:06.133Z,21.59
2022-10-29T10:16:08.885Z,21.75
2022-10-29T10:21:14.133Z,21.69
2022-10-29T10:26:43.181Z,22.24
2022-10-29T10:31:46.783Z,22.20
2022-10-29T10:37:02.910Z,22.05
2022-10-29T10:42:16.304Z,22.04
2022-10-29T10:47:22.354Z,22.17
2022-10-29T10:52:31.795Z,22.17
2022-10-29T10:57:40.770Z,22.61
2022-10-29T11:02:49.575Z,23.98
2022-10-29T11:07:59.193Z,26.10
2022-10-29T11:13:06.471Z,28.21
2022-10-29T11:18:35.302Z,30.27
2022-10-29T11:24:05.594Z,31.63
2022-10-29T11:29:22.899Z,31.61
2022-10-29T11:34:36.229Z,31.60
2022-10-29T11:39:48.230Z,31.58
2022-10-29T11:44:51.496Z,31.01
2022-10-29T11:50:09.346Z,30.75
2022-10-29T11:55:35.897Z,29.22
2022-10-29T12:01:11.264Z,29.29
2022-10-29T12:06:31.130Z,27.33
2022-10-29T12:12:02.814Z,25.99
2022-10-29T12:17:21.049Z,25.34
2022-10-29T12:22:33.387Z,25.01
2022-10-29T12:28:07.269Z,24.83
2022-10-29T12:33:27.533Z,24.54
2022-10-29T12:38:36.382Z,24.38
2022-10-29T12:43:40.969Z,24.26
2022-10-29T12:48:52.448Z,24.17
2022-10-29T12:54:15.416Z,24.27
2022-10-29T12:59:33.120Z,24.28
2022-10-29T13:04:35.551Z,24.61
2022-10-29T13:09:38.357Z,24.47
2022-10-29T13:14:55.665Z,24.25
2022-10-29T13:20:19.387Z,24.14
2022-10-29T13:25:46.483Z,24.05
2022-10-29T13:30:54.225Z,24.00
2022-10-29T13:36:00.243Z,23.77
2022-10-29T13:41:23.765Z,23.74
2022-10-29T13:46:34.872Z,23.71
2022-10-29T13:51:52.544Z,23.83
2022-10-29T13:57:12.160Z,24.23
2022-10-29T14:02:19.706Z,24.40
2022-10-29T14:07:30.164Z,24.45
2022-10-29T14:12:33.967Z,24.41
2022-10-29T14:17:36.421Z,24.42
2022-10-29T14:22:40.796Z,24.11
2022-10-29T14:27:43.151Z,24.28
2022-10-29T14:32:46.450Z,24.36
2022-10-29T14:37:49.715Z,24.29
2022-10-29T14:42:55.792Z,24.20
2022-10-29T14:48:08.999Z,24.07
2022-10-29T14:53:34.537Z,24.00
2022-10-29T14:58:38.235Z,23.97
2022-10-29T15:03:40.613Z,23.91
2022-10-29T15:08:45.617Z,23.84
2022-10-29T15:13:47.959Z,23.70
2022-10-29T15:18:53.074Z,23.45
2022-10-29T15:24:08.282Z,23.22
2022-10-29T15:29:12.063Z,22.91
2022-10-29T15:34:20.921Z,22.85
2022-10-29T15:39:50.448Z,22.90
2022-10-29T15:45:08.091Z,22.64
2022-10-29T15:50:19.903Z,22.61
2022-10-29T15:55:42.889Z,22.57
2022-10-29T16:00:45.664Z,22.42
2022-10-29T16:05:51.134Z,22.33
2022-10-29T16:10:54.355Z,22.17
2022-10-29T16:15:56.820Z,22.07
2022-10-29T16:21:02.689Z,21.90
2022-10-29T16:26:05.536Z,21.77
2022-10-29T16:31:26.122Z,21.70
2022-10-29T16:36:28.477Z,21.61
2022-10-29T16:41:33.253Z,21.60
2022-10-29T16:46:35.621Z,21.59
2022-10-29T16:51:38.032Z,21.60
2022-10-29T16:56:43.040Z,21.53
2022-10-29T17:01:47.176Z,21.55
2022-10-29T17:06:50.020Z,21.60
2022-10-29T17:11:52.542Z,21.61
2022-10-29T17:16:54.950Z,21.66
2022-10-29T17:21:58.898Z,21.64
2022-10-29T17:27:01.263Z,21.60
2022-10-29T17:37:27.981Z,21.52
2022-10-29T17:42:31.242Z,21.46
2022-10-29T17:47:33.673Z,21.46
2022-10-29T17:52:36.126Z,21.45
2022-10-29T17:57:38.539Z,21.48
2022-10-29T18:02:41.084Z,21.39
2022-10-29T18:07:43.669Z,21.23
2022-10-29T18:12:46.062Z,20.94
2022-10-29T18:17:48.526Z,20.93
2022-10-29T18:22:55.543Z,21.22
2022-10-29T18:27:58.411Z,21.23
2022-10-29T18:33:01.365Z,21.04
2022-10-29T18:38:04.062Z,20.85
2022-10-29T18:43:06.452Z,20.95
2022-10-29T18:48:09.150Z,20.73
2022-10-29T18:53:11.640Z,20.72
2022-10-29T18:58:14.237Z,20.59
2022-10-29T19:03:17.143Z,20.69
2022-10-29T19:08:19.516Z,20.76
2022-10-29T19:13:22.468Z,20.50
2022-10-29T19:18:24.845Z,19.98
2022-10-29T19:23:27.201Z,19.87
2022-10-29T19:28:30.732Z,19.58
2022-10-29T19:33:33.519Z,19.87
2022-10-29T19:38:36.332Z,20.08
2022-10-29T19:43:39.753Z,19.75
2022-10-29T19:48:42.464Z,19.74
2022-10-29T19:53:45.166Z,19.71
2022-10-29T19:58:47.678Z,19.87
2022-10-29T20:03:50.105Z,20.10
2022-10-29T20:08:52.739Z,20.08
2022-10-29T20:13:55.145Z,19.73
2022-10-29T20:18:57.778Z,19.09
2022-10-29T20:24:00.154Z,18.94
2022-10-29T20:29:02.506Z,19.39
2022-10-29T20:34:04.916Z,19.13
2022-10-29T20:39:07.463Z,19.07
2022-10-29T20:44:10.152Z,19.27
2022-10-29T20:49:12.537Z,18.96
2022-10-29T20:54:14.903Z,19.08
2022-10-29T20:59:17.299Z,19.08
2022-10-29T21:04:19.695Z,19.15
2022-10-29T21:09:22.946Z,19.42
2022-10-29T21:14:27.514Z,18.82
2022-10-29T21:19:29.920Z,18.84
2022-10-29T21:24:32.262Z,18.66
2022-10-29T21:29:34.623Z,18.73
2022-10-29T21:34:37.474Z,18.67
2022-10-29T21:39:39.925Z,19.02
2022-10-29T21:44:42.385Z,18.50
2022-10-29T21:49:51.730Z,18.58
2022-10-29T21:54:54.690Z,18.48
2022-10-29T21:59:57.046Z,18.54
2022-10-29T22:04:59.396Z,18.30
2022-10-29T22:10:02.040Z,18.47
2022-10-29T22:15:05.295Z,18.84
2022-10-29T22:20:08.098Z,18.34
2022-10-29T22:25:10.757Z,18.12
2022-10-29T22:30:13.269Z,17.95
2022-10-29T22:35:17.074Z,17.74
2022-10-29T22:40:19.500Z,18.45
2022-10-29T22:45:22.142Z,18.54
2022-10-29T22:50:24.812Z,18.15
2022-10-29T22:55:27.202Z,18.51
2022-10-29T23:00:29.645Z,18.47
2022-10-29T23:05:32.013Z,18.09
2022-10-29T23:10:34.557Z,17.76
2022-10-29T23:15:36.938Z,17.36
2022-10-29T23:20:39.301Z,17.23
2022-10-29T23:25:42.353Z,17.36
2022-10-29T23:30:52.051Z,17.66
2022-10-29T23:35:54.736Z,17.87
2022-10-29T23:40:57.115Z,18.23
2022-10-29T23:45:59.547Z,18.56
2022-10-29T23:51:02.067Z,18.64
2022-10-29T23:56:05.048Z,18.58
